Time;durP1;ratioP1;P1;durP2;ratioP2;P2;SDS_P1;SDS_P2;PMS_P1;PMS_P2;Temp;Humidity;BMP_temperature;BMP_pressure;BME280_temperature;BME280_humidity;BME280_pressure;Samples;Min_cycle;Max_cycle;Signal;HPM_P1;HPM_P2
2021/09/16 00:01:23;;;;;;;9.45;6.47;;;;;;;17.09;92.17;98237.81;4169031;28;20449;-74
2021/09/16 00:03:23;;;;;;;8.10;7.20;;;;;;;17.09;92.22;98247.00;4171263;28;20048;-74
2021/09/16 00:05:24;;;;;;;13.43;8.55;;;;;;;17.11;91.98;98250.16;4170668;28;20048;-74
2021/09/16 00:07:24;;;;;;;13.20;9.80;;;;;;;17.06;91.47;98247.06;4170478;28;20209;-74
2021/09/16 00:09:25;;;;;;;14.93;10.30;;;;;;;17.05;91.31;98248.28;4168954;28;20110;-74
2021/09/16 00:11:25;;;;;;;19.23;13.68;;;;;;;16.93;89.89;98251.69;4169869;28;20056;-74
2021/09/16 00:13:25;;;;;;;22.27;15.60;;;;;;;16.85;89.12;98260.19;4170424;28;20087;-74
2021/09/16 00:15:26;;;;;;;24.00;15.95;;;;;;;16.85;88.80;98257.41;4170315;28;20102;-74
2021/09/16 00:17:26;;;;;;;22.60;15.90;;;;;;;16.84;89.21;98261.41;4170626;28;20041;-74
2021/09/16 00:19:26;;;;;;;28.60;16.40;;;;;;;16.77;89.25;98264.31;4170172;28;20386;-74
2021/09/16 00:21:27;;;;;;;26.90;17.27;;;;;;;16.70;88.84;98269.22;4171143;28;20049;-74
2021/09/16 00:23:27;;;;;;;27.63;18.00;;;;;;;16.63;89.03;98263.72;4169415;28;20048;-74
2021/09/16 00:25:27;;;;;;;27.83;18.13;;;;;;;16.57;89.58;98283.00;4170136;28;20393;-74
2021/09/16 00:27:28;;;;;;;27.73;18.38;;;;;;;16.56;89.85;98282.19;4170067;28;20052;-74
2021/09/16 00:29:28;;;;;;;28.95;19.27;;;;;;;16.44;89.78;98285.56;4170736;28;20049;-74
2021/09/16 00:31:28;;;;;;;26.80;17.95;;;;;;;16.44;89.80;98291.16;4171099;28;20053;-74
2021/09/16 00:33:29;;;;;;;28.42;18.33;;;;;;;16.43;89.73;98294.38;4169403;28;20051;-74
2021/09/16 00:35:29;;;;;;;31.42;20.25;;;;;;;16.34;89.70;98289.31;4170679;28;20119;-74
2021/09/16 00:37:30;;;;;;;27.80;19.33;;;;;;;16.31;89.62;98283.78;4169986;28;20466;-74
2021/09/16 00:39:30;;;;;;;33.63;18.73;;;;;;;16.28;89.76;98286.19;4169806;28;20048;-74
2021/09/16 00:41:30;;;;;;;28.73;19.38;;;;;;;16.31;89.94;98290.16;4171018;28;20278;-74
2021/09/16 00:43:31;;;;;;;29.42;19.02;;;;;;;16.26;90.22;98290.63;4169195;28;20401;-74
2021/09/16 00:45:31;;;;;;;32.38;19.83;;;;;;;16.28;89.67;98294.56;4169447;28;20056;-74
2021/09/16 00:47:31;;;;;;;26.75;18.25;;;;;;;16.31;89.71;98294.97;4170604;28;20642;-74
2021/09/16 00:49:32;;;;;;;30.92;20.42;;;;;;;16.20;90.40;98298.66;4168421;28;20099;-74
2021/09/16 00:51:33;;;;;;;30.38;19.92;;;;;;;16.12;90.81;98286.03;4168507;28;20056;-74
2021/09/16 00:53:34;;;;;;;28.85;19.23;;;;;;;16.17;90.43;98299.53;4150461;28;20818;-74
2021/09/16 00:55:34;;;;;;;29.30;20.00;;;;;;;16.12;90.14;98296.41;4169455;28;20056;-74
2021/09/16 00:57:34;;;;;;;29.60;19.48;;;;;;;16.13;90.36;98306.34;4144824;28;20445;-74
2021/09/16 00:59:35;;;;;;;32.05;19.15;;;;;;;16.14;90.15;98305.94;4166352;28;20046;-74
2021/09/16 01:01:35;;;;;;;30.77;19.35;;;;;;;16.09;89.91;98306.41;4168907;28;20048;-74
2021/09/16 01:03:35;;;;;;;30.08;20.27;;;;;;;16.07;89.93;98305.25;4168755;28;20110;-74
2021/09/16 01:05:36;;;;;;;30.42;18.38;;;;;;;16.07;89.83;98306.03;4169021;28;20568;-74
2021/09/16 01:07:38;;;;;;;33.10;19.40;;;;;;;16.06;89.48;98303.69;4169662;28;20312;-74
2021/09/16 01:09:38;;;;;;;29.73;19.95;;;;;;;16.04;89.45;98304.06;4169790;28;20126;-74
2021/09/16 01:11:39;;;;;;;28.40;18.67;;;;;;;16.04;89.42;98297.69;4167505;28;20045;-74
2021/09/16 01:13:44;;;;;;;27.88;18.67;;;;;;;15.95;89.26;98303.78;4169032;28;20177;-74
2021/09/16 01:15:45;;;;;;;31.48;19.42;;;;;;;15.96;88.59;98310.94;4168049;28;20068;-74
2021/09/16 01:17:46;;;;;;;27.38;19.55;;;;;;;15.91;89.12;98303.06;4165159;28;20078;-74
2021/09/16 01:19:47;;;;;;;30.98;19.05;;;;;;;15.94;89.19;98316.97;4169089;28;20079;-74
2021/09/16 01:21:48;;;;;;;29.65;18.40;;;;;;;15.90;89.25;98309.84;4168034;28;20041;-74
2021/09/16 01:23:49;;;;;;;33.25;18.60;;;;;;;15.89;89.16;98317.44;4169708;28;20370;-74
2021/09/16 01:25:49;;;;;;;28.20;19.00;;;;;;;15.88;89.19;98321.41;4169409;28;20072;-74
2021/09/16 01:27:51;;;;;;;28.55;18.42;;;;;;;15.84;89.65;98320.69;4168680;28;20142;-74
2021/09/16 01:29:52;;;;;;;25.15;18.80;;;;;;;15.86;89.79;98325.84;4168009;28;20452;-74
2021/09/16 01:31:52;;;;;;;21.38;16.23;;;;;;;15.86;89.92;98325.84;4162614;28;20320;-74
2021/09/16 01:33:53;;;;;;;23.85;17.23;;;;;;;15.86;90.05;98332.19;4168407;28;20502;-74
2021/09/16 01:35:53;;;;;;;26.55;18.25;;;;;;;15.85;90.05;98327.03;4168228;28;20427;-74
2021/09/16 01:37:54;;;;;;;25.52;17.67;;;;;;;15.89;90.21;98333.38;4168918;28;20052;-74
2021/09/16 01:39:54;;;;;;;25.20;18.65;;;;;;;15.90;89.62;98334.97;4167089;28;20056;-74
2021/09/16 01:41:54;;;;;;;25.58;17.20;;;;;;;15.89;89.65;98336.19;4168166;28;20056;-74
2021/09/16 01:43:55;;;;;;;25.13;17.25;;;;;;;15.89;89.68;98336.19;4169025;28;20483;-74
2021/09/16 01:45:55;;;;;;;24.35;16.58;;;;;;;15.85;89.75;98339.00;4169613;28;20071;-74
2021/09/16 01:47:56;;;;;;;25.67;17.98;;;;;;;15.81;89.93;98331.88;4169886;28;20045;-74
2021/09/16 01:49:56;;;;;;;25.85;16.42;;;;;;;15.80;89.96;98330.28;4167303;28;20045;-74
2021/09/16 01:51:57;;;;;;;22.27;16.63;;;;;;;15.79;90.10;98321.13;4168047;28;20067;-74
2021/09/16 01:53:57;;;;;;;28.95;17.88;;;;;;;15.74;90.04;98316.03;4168440;28;20045;-74
2021/09/16 01:55:58;;;;;;;28.63;17.88;;;;;;;15.75;89.79;98322.38;4169796;28;20060;-74
2021/09/16 01:57:58;;;;;;;23.30;18.05;;;;;;;15.74;90.09;98327.19;4167611;28;20350;-74
2021/09/16 01:59:59;;;;;;;24.85;18.33;;;;;;;15.73;89.83;98326.38;4166360;28;20088;-74
2021/09/16 02:01:59;;;;;;;26.15;17.02;;;;;;;15.70;89.87;98315.25;4169301;28;20044;-74
2021/09/16 02:04:00;;;;;;;25.15;16.52;;;;;;;15.63;89.67;98306.97;4160700;28;20084;-74
2021/09/16 02:06:00;;;;;;;28.17;17.60;;;;;;;15.65;89.83;98324.88;4161896;28;20041;-74
2021/09/16 02:08:00;;;;;;;25.98;17.02;;;;;;;15.65;89.92;98324.09;4168822;28;20041;-74
2021/09/16 02:10:01;;;;;;;20.13;14.30;;;;;;;15.64;90.01;98328.88;4167290;28;20584;-74
2021/09/16 02:12:02;;;;;;;22.85;16.15;;;;;;;15.64;89.92;98328.88;4167731;28;20116;-74
2021/09/16 02:14:02;;;;;;;21.98;15.55;;;;;;;15.62;89.68;98328.50;4168258;28;20064;-73
2021/09/16 02:16:03;;;;;;;20.95;16.13;;;;;;;15.59;89.53;98340.47;4169055;28;20037;-73
2021/09/16 02:18:03;;;;;;;21.42;16.48;;;;;;;15.54;89.28;98324.16;4168057;28;20033;-74
2021/09/16 02:20:04;;;;;;;21.80;16.40;;;;;;;15.60;89.45;98333.66;4168611;28;20040;-73
2021/09/16 02:22:04;;;;;;;26.08;16.83;;;;;;;15.60;89.20;98328.09;4169473;28;20116;-74
2021/09/16 02:24:05;;;;;;;21.60;16.30;;;;;;;15.63;89.00;98321.69;4166604;28;20061;-73
2021/09/16 02:26:05;;;;;;;20.73;16.38;;;;;;;15.58;88.65;98324.94;4167292;28;20148;-73
2021/09/16 02:28:05;;;;;;;24.75;17.98;;;;;;;15.49;89.43;98321.06;4167363;28;20386;-73
2021/09/16 02:30:06;;;;;;;21.75;15.73;;;;;;;15.49;89.44;98315.47;4169194;28;20075;-73
2021/09/16 02:32:07;;;;;;;27.08;17.80;;;;;;;15.49;89.54;98321.84;4168508;28;20029;-74
2021/09/16 02:34:07;;;;;;;20.88;14.98;;;;;;;15.49;89.35;98321.84;4167426;28;20033;-74
2021/09/16 02:36:07;;;;;;;19.55;15.02;;;;;;;15.49;89.50;98321.84;4169526;28;20029;-73
2021/09/16 02:38:08;;;;;;;19.77;16.13;;;;;;;15.49;89.43;98324.63;4168607;28;20036;-73
2021/09/16 02:40:09;;;;;;;25.38;18.38;;;;;;;15.46;89.23;98329.03;4168178;28;20041;-74
2021/09/16 02:42:09;;;;;;;21.13;15.98;;;;;;;15.46;89.31;98325.44;4169075;28;20495;-74
2021/09/16 02:44:09;;;;;;;29.90;16.50;;;;;;;15.42;89.30;98316.34;4167566;28;20056;-74
2021/09/16 02:46:10;;;;;;;20.75;15.55;;;;;;;15.46;89.41;98322.66;4167942;28;20028;-75
2021/09/16 02:48:11;;;;;;;25.20;16.40;;;;;;;15.47;89.33;98329.81;4168720;28;20024;-74
2021/09/16 02:50:11;;;;;;;20.17;15.70;;;;;;;15.46;89.41;98336.59;4168986;28;20033;-74
2021/09/16 02:52:12;;;;;;;19.60;14.38;;;;;;;15.46;89.46;98331.03;4168209;28;20208;-74
2021/09/16 02:54:12;;;;;;;23.85;15.65;;;;;;;15.43;89.32;98332.66;4168168;28;20083;-74
2021/09/16 02:56:12;;;;;;;20.20;16.10;;;;;;;15.45;89.16;98332.22;4168580;28;20364;-74
2021/09/16 02:58:13;;;;;;;21.10;14.65;;;;;;;15.49;89.10;98340.56;4168684;28;20033;-74
2021/09/16 03:00:14;;;;;;;19.98;14.57;;;;;;;15.51;89.04;98330.59;4168490;28;20090;-74
2021/09/16 03:02:14;;;;;;;20.45;16.00;;;;;;;15.49;89.01;98335.78;4167276;28;20029;-74
2021/09/16 03:04:15;;;;;;;18.48;14.05;;;;;;;15.48;89.00;98336.22;4168192;28;20037;-74
2021/09/16 03:06:15;;;;;;;21.02;14.75;;;;;;;15.45;89.02;98337.81;4168631;28;20044;-74
2021/09/16 03:08:15;;;;;;;19.98;14.90;;;;;;;15.46;89.71;98342.16;4168575;28;20362;-74
2021/09/16 03:10:16;;;;;;;20.00;14.13;;;;;;;15.49;89.10;98338.56;4168872;28;20029;-74
2021/09/16 03:12:16;;;;;;;21.35;15.02;;;;;;;15.46;89.12;98339.38;4168069;28;20803;-74
2021/09/16 03:14:16;;;;;;;19.65;14.70;;;;;;;15.48;89.07;98345.38;4168176;28;20033;-73
2021/09/16 03:16:17;;;;;;;23.30;15.32;;;;;;;15.50;88.95;98340.16;4166987;28;20446;-74
2021/09/16 03:18:17;;;;;;;18.85;13.70;;;;;;;15.46;88.95;98337.38;4166246;28;20238;-74
2021/09/16 03:20:18;;;;;;;20.35;15.25;;;;;;;15.42;89.37;98333.84;4168715;28;20044;-74
2021/09/16 03:22:18;;;;;;;20.88;16.13;;;;;;;15.40;89.46;98343.84;4169543;28;20036;-74
2021/09/16 03:24:18;;;;;;;19.40;14.73;;;;;;;15.35;89.84;98330.34;4170594;28;20411;-74
2021/09/16 03:26:19;;;;;;;21.60;16.13;;;;;;;15.36;89.61;98341.09;4170662;28;20036;-74
2021/09/16 03:28:19;;;;;;;24.70;15.68;;;;;;;15.33;89.30;98327.19;4171013;28;20028;-74
2021/09/16 03:30:20;;;;;;;22.92;15.82;;;;;;;15.35;89.16;98330.34;4166106;28;20028;-74
2021/09/16 03:32:20;;;;;;;23.35;16.25;;;;;;;15.33;88.90;98330.78;4160575;28;20357;-74
2021/09/16 03:34:21;;;;;;;20.95;15.73;;;;;;;15.32;88.97;98337.56;4159853;28;20060;-74
2021/09/16 03:36:21;;;;;;;20.48;16.08;;;;;;;15.30;88.74;98323.22;4171259;28;20049;-74
2021/09/16 03:38:21;;;;;;;22.23;16.35;;;;;;;15.24;88.72;98321.31;4170638;28;20040;-74
2021/09/16 03:40:22;;;;;;;20.27;15.25;;;;;;;15.25;88.79;98328.47;4170339;28;20048;-74
2021/09/16 03:42:22;;;;;;;19.77;14.55;;;;;;;15.23;88.56;98330.88;4168180;28;20041;-74
2021/09/16 03:44:23;;;;;;;20.40;15.95;;;;;;;15.20;88.81;98340.84;4168925;28;20072;-74
2021/09/16 03:46:23;;;;;;;20.40;15.10;;;;;;;15.20;88.89;98343.63;4168733;28;20042;-74
2021/09/16 03:48:23;;;;;;;16.58;13.43;;;;;;;15.20;89.13;98345.63;4170595;28;20049;-74
2021/09/16 03:50:24;;;;;;;17.83;14.75;;;;;;;15.21;89.17;98339.63;4168499;28;20041;-74
2021/09/16 03:52:24;;;;;;;20.30;16.02;;;;;;;15.20;89.15;98351.97;4168490;28;20049;-74
2021/09/16 03:54:24;;;;;;;23.40;15.73;;;;;;;15.19;89.51;98355.97;4166972;28;20048;-74
2021/09/16 03:56:25;;;;;;;25.60;15.18;;;;;;;15.22;89.05;98363.50;4169810;28;20041;-74
2021/09/16 03:58:26;;;;;;;25.15;16.75;;;;;;;15.16;89.15;98354.03;4169175;28;20052;-73
2021/09/16 04:00:27;;;;;;;20.30;15.30;;;;;;;15.16;89.38;98343.66;4168084;28;20497;-74
2021/09/16 04:02:27;;;;;;;21.40;16.65;;;;;;;15.12;89.46;98345.69;4168223;28;20500;-73
2021/09/16 04:04:27;;;;;;;19.70;16.58;;;;;;;15.12;89.48;98348.47;4159755;28;20052;-74
2021/09/16 04:06:28;;;;;;;23.05;16.48;;;;;;;15.12;89.49;98342.09;4167986;28;20044;-74
2021/09/16 04:08:28;;;;;;;22.08;15.27;;;;;;;15.14;89.40;98350.84;4169084;28;20500;-74
2021/09/16 04:10:29;;;;;;;22.10;15.20;;;;;;;15.14;89.26;98346.09;4162241;28;20053;-74
2021/09/16 04:12:29;;;;;;;20.60;14.77;;;;;;;15.14;89.38;98336.91;4152906;28;20819;-73
2021/09/16 04:14:29;;;;;;;21.73;15.65;;;;;;;15.17;89.40;98355.59;4154695;28;20049;-74
2021/09/16 04:16:30;;;;;;;18.10;14.45;;;;;;;15.16;89.24;98345.66;4169114;28;20358;-74
2021/09/16 04:18:30;;;;;;;20.75;15.65;;;;;;;15.18;89.37;98346.03;4167466;28;20041;-74
2021/09/16 04:20:31;;;;;;;19.55;16.00;;;;;;;15.22;89.19;98351.56;4167251;28;20041;-74
2021/09/16 04:22:31;;;;;;;20.50;14.40;;;;;;;15.20;88.94;98354.78;4169174;28;20052;-74
2021/09/16 04:24:31;;;;;;;19.83;15.63;;;;;;;15.20;88.98;98354.78;4167147;28;20044;-74
2021/09/16 04:26:32;;;;;;;20.73;15.07;;;;;;;15.16;89.54;98351.25;4168968;28;20040;-74
2021/09/16 04:28:32;;;;;;;19.95;15.35;;;;;;;15.14;89.10;98354.44;4167531;28;20052;-74
2021/09/16 04:30:33;;;;;;;21.25;15.82;;;;;;;15.17;88.97;98356.41;4156348;28;20042;-74
2021/09/16 04:32:33;;;;;;;18.83;15.40;;;;;;;15.15;89.41;98355.22;4161467;28;20473;-74
2021/09/16 04:34:33;;;;;;;22.70;15.50;;;;;;;15.13;89.42;98358.41;4169488;28;20048;-74
2021/09/16 04:36:34;;;;;;;21.23;15.00;;;;;;;15.09;89.28;98357.66;4169355;28;20052;-73
2021/09/16 04:38:35;;;;;;;18.20;13.40;;;;;;;15.09;89.28;98359.66;4169059;28;20048;-74
2021/09/16 04:40:35;;;;;;;19.48;15.50;;;;;;;15.10;89.59;98367.59;4169837;28;20041;-74
2021/09/16 04:42:35;;;;;;;20.73;15.07;;;;;;;15.09;89.80;98363.22;4167531;28;20040;-74
2021/09/16 04:44:36;;;;;;;24.15;15.98;;;;;;;15.08;89.85;98361.66;4168899;28;20331;-73
2021/09/16 04:46:37;;;;;;;18.60;13.43;;;;;;;15.09;89.80;98366.03;4170193;28;20377;-74
2021/09/16 04:48:37;;;;;;;21.17;15.82;;;;;;;15.06;89.90;98361.28;4169447;28;20059;-74
2021/09/16 04:50:37;;;;;;;23.75;16.25;;;;;;;15.07;89.92;98360.06;4170756;28;20492;-74
2021/09/16 04:52:38;;;;;;;25.35;17.17;;;;;;;15.06;90.02;98366.84;4163507;28;20045;-74
2021/09/16 04:54:38;;;;;;;22.63;15.77;;;;;;;15.05;90.11;98362.47;4155350;28;20197;-74
2021/09/16 04:56:39;;;;;;;19.77;13.98;;;;;;;15.03;90.18;98361.28;4167348;28;20427;-74
2021/09/16 04:58:39;;;;;;;21.77;14.90;;;;;;;15.04;90.12;98363.66;4165172;28;20053;-74
2021/09/16 05:00:40;;;;;;;18.85;13.63;;;;;;;15.04;89.93;98372.03;4159311;28;20091;-74
2021/09/16 05:02:40;;;;;;;22.33;15.45;;;;;;;15.06;89.91;98379.97;4166616;28;20220;-74
2021/09/16 05:04:40;;;;;;;21.88;14.63;;;;;;;15.05;89.58;98376.38;4168455;28;20052;-74
2021/09/16 05:06:41;;;;;;;22.02;16.63;;;;;;;15.06;89.47;98379.97;4165006;28;20056;-74
2021/09/16 05:08:42;;;;;;;19.73;15.07;;;;;;;15.05;89.37;98379.16;4167500;28;20098;-74
2021/09/16 05:10:43;;;;;;;20.40;15.30;;;;;;;15.03;89.64;98378.78;4166249;28;20036;-74
2021/09/16 05:12:43;;;;;;;19.83;15.63;;;;;;;15.04;89.34;98380.38;4166354;28;20343;-74
2021/09/16 05:14:44;;;;;;;18.98;15.05;;;;;;;15.05;89.51;98384.75;4167269;28;20036;-74
2021/09/16 05:16:44;;;;;;;21.17;15.82;;;;;;;15.03;89.72;98384.38;4169059;28;20053;-74
2021/09/16 05:18:45;;;;;;;22.77;15.45;;;;;;;15.07;89.56;98392.72;4166835;28;20068;-74
2021/09/16 05:20:45;;;;;;;24.73;15.95;;;;;;;15.04;89.73;98391.53;4167383;28;20523;-74
2021/09/16 05:22:46;;;;;;;20.38;15.60;;;;;;;15.03;90.22;98389.94;4169088;28;20288;-74
2021/09/16 05:24:46;;;;;;;22.42;15.35;;;;;;;15.03;90.03;98389.16;4169545;28;20702;-74
2021/09/16 05:26:46;;;;;;;18.50;13.25;;;;;;;15.03;89.89;98384.38;4166307;28;20138;-74
2021/09/16 05:28:47;;;;;;;22.02;13.68;;;;;;;15.04;89.92;98391.53;4167731;28;20563;-74
2021/09/16 05:30:47;;;;;;;17.52;13.10;;;;;;;15.00;89.70;98378.84;4164511;28;20504;-73
2021/09/16 05:32:48;;;;;;;24.42;15.00;;;;;;;15.05;89.71;98392.31;4169257;28;20084;-74
2021/09/16 05:34:48;;;;;;;21.83;14.48;;;;;;;15.04;89.48;98387.94;4168787;28;20068;-74
2021/09/16 05:36:48;;;;;;;20.10;14.45;;;;;;;15.07;89.15;98401.06;4170084;28;20049;-74
2021/09/16 05:38:49;;;;;;;23.60;15.98;;;;;;;15.07;89.43;98401.06;4169826;28;20041;-74
2021/09/16 05:40:49;;;;;;;23.20;15.77;;;;;;;15.09;89.01;98393.09;4169431;28;20593;-74
2021/09/16 05:42:50;;;;;;;18.27;13.93;;;;;;;15.09;89.02;98402.25;4169887;28;20051;-74
2021/09/16 05:44:50;;;;;;;22.33;15.25;;;;;;;15.09;89.09;98402.25;4167242;28;20044;-74
2021/09/16 05:46:50;;;;;;;20.45;15.80;;;;;;;15.07;88.94;98404.66;4168582;28;20380;-74
2021/09/16 05:48:51;;;;;;;21.95;15.73;;;;;;;15.10;88.37;98397.47;4169007;28;20316;-74
2021/09/16 05:50:51;;;;;;;19.30;14.80;;;;;;;15.10;88.59;98400.25;4168215;28;20052;-74
2021/09/16 05:52:51;;;;;;;24.85;14.63;;;;;;;15.14;88.49;98398.22;4168693;28;20041;-74
2021/09/16 05:54:52;;;;;;;23.90;15.70;;;;;;;15.14;88.63;98399.03;4166125;28;20056;-74
2021/09/16 05:56:52;;;;;;;22.15;15.75;;;;;;;15.07;88.68;98396.28;4168686;28;20041;-74
2021/09/16 05:58:53;;;;;;;23.17;15.73;;;;;;;15.03;88.61;98400.28;4169459;28;20385;-74
2021/09/16 06:00:53;;;;;;;21.73;15.07;;;;;;;15.12;88.67;98406.97;4169496;28;20323;-74
2021/09/16 06:02:53;;;;;;;21.65;14.98;;;;;;;15.09;88.49;98407.03;4169593;28;20033;-74
2021/09/16 06:04:54;;;;;;;25.15;15.07;;;;;;;15.07;88.83;98415.81;4168977;28;20048;-74
2021/09/16 06:06:54;;;;;;;20.55;15.43;;;;;;;15.09;88.77;98410.59;4169526;28;20041;-74
2021/09/16 06:08:54;;;;;;;19.35;14.55;;;;;;;15.10;88.66;98414.97;4169484;28;20057;-74
2021/09/16 06:10:55;;;;;;;20.95;15.27;;;;;;;15.16;88.94;98418.91;4169868;28;20385;-74
2021/09/16 06:12:55;;;;;;;24.50;16.05;;;;;;;15.12;89.22;98412.56;4169236;28;20052;-74
2021/09/16 06:14:55;;;;;;;20.52;14.95;;;;;;;15.14;89.34;98424.09;4169013;28;20048;-74
2021/09/16 06:16:56;;;;;;;18.30;12.30;;;;;;;14.99;87.09;98417.06;4168808;28;20045;-74
2021/09/16 06:18:56;;;;;;;21.58;12.77;;;;;;;14.96;87.13;98412.28;4169014;28;20044;-74
2021/09/16 06:20:56;;;;;;;16.40;11.77;;;;;;;14.92;87.31;98428.25;4169351;28;20049;-74
2021/09/16 06:22:57;;;;;;;19.50;12.93;;;;;;;14.83;87.84;98428.69;4168626;28;20377;-74
2021/09/16 06:24:57;;;;;;;16.92;11.60;;;;;;;14.85;87.19;98422.72;4169268;28;20041;-74
2021/09/16 06:26:57;;;;;;;17.65;12.38;;;;;;;14.81;87.43;98424.72;4169554;28;20052;-74
2021/09/16 06:28:58;;;;;;;16.15;11.98;;;;;;;14.76;87.41;98430.72;4167283;28;20493;-74
2021/09/16 06:30:58;;;;;;;16.50;11.38;;;;;;;14.77;87.32;98429.53;4168879;28;20045;-74
2021/09/16 06:32:59;;;;;;;16.13;11.85;;;;;;;14.67;88.38;98430.38;4168327;28;20044;-74
2021/09/16 06:34:59;;;;;;;19.20;12.13;;;;;;;14.63;88.74;98437.94;4168732;28;20041;-74
2021/09/16 06:37:00;;;;;;;16.98;12.23;;;;;;;14.54;89.10;98435.63;4167914;28;20458;-74
2021/09/16 06:39:00;;;;;;;21.17;13.20;;;;;;;14.33;90.28;98440.06;4166958;28;20114;-74
2021/09/16 06:41:00;;;;;;;19.85;13.20;;;;;;;14.18;91.20;98441.31;4169671;28;20049;-74
2021/09/16 06:43:01;;;;;;;20.92;12.20;;;;;;;14.08;91.81;98435.78;4166376;28;20036;-74
2021/09/16 06:45:01;;;;;;;20.23;12.32;;;;;;;13.99;92.10;98445.34;4169159;28;20480;-74
2021/09/16 06:47:02;;;;;;;19.48;11.60;;;;;;;13.96;91.70;98451.69;4166072;28;20098;-74
2021/09/16 06:49:02;;;;;;;18.13;12.00;;;;;;;14.00;91.48;98446.16;4169038;28;20124;-74
2021/09/16 06:51:02;;;;;;;16.67;11.98;;;;;;;14.01;90.90;98444.94;4167811;28;20044;-74
2021/09/16 06:53:03;;;;;;;15.02;10.13;;;;;;;13.96;90.40;98446.13;4167879;28;20501;-74
2021/09/16 06:55:03;;;;;;;17.90;10.30;;;;;;;13.92;89.65;98452.91;4168727;28;20087;-74
2021/09/16 06:57:04;;;;;;;16.58;10.88;;;;;;;13.94;89.71;98451.31;4170349;28;20041;-74
2021/09/16 06:59:04;;;;;;;15.50;10.75;;;;;;;13.92;90.06;98453.72;4172116;28;20300;-74
2021/09/16 07:01:05;;;;;;;14.30;10.15;;;;;;;13.80;90.08;98450.53;4172488;28;20041;-74
2021/09/16 07:03:05;;;;;;;17.90;10.48;;;;;;;13.78;90.54;98462.06;4172036;28;20045;-74
2021/09/16 07:05:06;;;;;;;18.33;11.55;;;;;;;13.73;91.07;98460.47;4170554;28;20044;-74
2021/09/16 07:07:07;;;;;;;18.77;11.60;;;;;;;13.75;91.39;98471.22;4170861;28;20573;-74
2021/09/16 07:09:07;;;;;;;16.73;11.00;;;;;;;13.81;91.49;98464.03;4172760;28;20442;-74
2021/09/16 07:11:07;;;;;;;17.27;10.90;;;;;;;13.81;91.29;98461.25;4173543;28;21249;-74
2021/09/16 07:13:08;;;;;;;15.77;9.90;;;;;;;13.85;91.07;98466.84;4170727;28;20045;-74
2021/09/16 07:15:09;;;;;;;16.15;10.30;;;;;;;13.86;89.94;98466.44;4171822;28;20044;-74
2021/09/16 07:17:09;;;;;;;16.88;10.00;;;;;;;13.90;90.00;98460.84;4172075;28;20053;-74
2021/09/16 07:19:11;;;;;;;17.02;9.90;;;;;;;13.96;89.04;98462.03;4171513;28;20045;-74
2021/09/16 07:21:11;;;;;;;15.85;8.95;;;;;;;14.00;88.36;98465.63;4171442;28;20045;-74
2021/09/16 07:23:13;;;;;;;16.17;8.98;;;;;;;14.09;88.40;98470.75;4171652;28;20044;-74
2021/09/16 07:25:13;;;;;;;15.30;10.60;;;;;;;14.09;89.10;98468.78;4171314;28;20045;-74
2021/09/16 07:27:14;;;;;;;15.20;10.07;;;;;;;14.11;88.99;98468.34;4171813;28;20086;-74
2021/09/16 07:29:14;;;;;;;17.77;10.73;;;;;;;14.16;89.07;98470.75;4171928;28;20409;-74
2021/09/16 07:31:15;;;;;;;16.52;10.25;;;;;;;14.19;89.40;98478.28;4171598;28;20398;-74
2021/09/16 07:33:16;;;;;;;13.93;10.20;;;;;;;14.16;89.10;98482.66;4170791;28;20061;-74
2021/09/16 07:35:16;;;;;;;17.13;10.52;;;;;;;14.22;89.40;98471.91;4171704;28;20045;-74
2021/09/16 07:37:17;;;;;;;17.35;10.20;;;;;;;14.28;88.91;98462.72;4170984;28;20041;-74
2021/09/16 07:39:19;;;;;;;15.05;10.20;;;;;;;14.26;89.02;98467.13;4170555;28;20045;-74
2021/09/16 07:41:20;;;;;;;14.63;10.15;;;;;;;14.33;88.94;98473.47;4171510;28;20087;-74
2021/09/16 07:43:20;;;;;;;15.55;10.27;;;;;;;14.41;88.96;98477.00;4171031;28;20504;-74
2021/09/16 07:45:21;;;;;;;17.58;10.57;;;;;;;14.44;88.93;98478.19;4170685;28;20041;-74
2021/09/16 07:47:22;;;;;;;15.90;9.98;;;;;;;14.48;88.88;98479.81;4154030;28;20049;-74
2021/09/16 07:49:22;;;;;;;17.30;11.32;;;;;;;14.54;89.07;98480.16;4171537;28;20045;-74
2021/09/16 07:51:25;;;;;;;16.27;11.10;;;;;;;14.51;89.22;98481.78;4170564;28;20045;-74
2021/09/16 07:53:30;;;;;;;14.75;10.48;;;;;;;14.57;89.36;98482.94;4169249;28;20053;-74
2021/09/16 07:55:31;;;;;;;15.43;10.60;;;;;;;14.57;89.16;98485.72;4171716;28;20077;-74
2021/09/16 07:57:32;;;;;;;16.58;11.52;;;;;;;14.56;88.88;98497.25;4170788;28;20081;-74
2021/09/16 07:59:33;;;;;;;16.80;11.05;;;;;;;14.58;88.80;98492.09;4170641;28;20052;-74
2021/09/16 08:01:35;;;;;;;19.45;12.35;;;;;;;14.53;88.73;98495.28;4170909;28;20044;-74
2021/09/16 08:03:36;;;;;;;14.32;10.13;;;;;;;14.50;88.00;98498.88;4169175;28;20037;-74
2021/09/16 08:05:36;;;;;;;14.95;10.23;;;;;;;14.46;87.28;98498.88;4168252;28;20497;-74
2021/09/16 08:07:37;;;;;;;14.57;9.70;;;;;;;14.43;86.73;98508.00;4170569;28;20033;-74
2021/09/16 08:09:37;;;;;;;17.55;10.40;;;;;;;14.20;87.49;98502.91;4171046;28;20074;-74
2021/09/16 08:11:39;;;;;;;13.60;9.25;;;;;;;14.17;88.11;98502.94;4171486;28;20037;-74
2021/09/16 08:13:40;;;;;;;15.55;10.27;;;;;;;14.03;89.05;98501.75;4170761;28;20562;-74
2021/09/16 08:15:41;;;;;;;16.52;9.55;;;;;;;14.02;89.39;98502.16;4170205;28;20045;-74
2021/09/16 08:17:42;;;;;;;15.65;9.43;;;;;;;13.92;89.08;98511.31;4170494;28;20041;-74
2021/09/16 08:19:43;;;;;;;14.43;9.52;;;;;;;13.98;89.13;98495.78;4169464;28;20103;-74
2021/09/16 08:21:44;;;;;;;12.48;8.13;;;;;;;14.07;88.04;98507.34;4169696;28;20049;-74
2021/09/16 08:23:45;;;;;;;12.85;8.02;;;;;;;14.05;87.85;98504.94;4163531;28;20448;-74
2021/09/16 08:25:45;;;;;;;13.48;8.77;;;;;;;14.04;87.88;98508.91;4168452;28;20041;-74
2021/09/16 08:27:46;;;;;;;13.32;9.18;;;;;;;14.08;88.04;98508.91;4169869;28;20056;-74
2021/09/16 08:29:46;;;;;;;12.95;8.40;;;;;;;14.12;87.30;98514.47;4170960;28;20045;-74
2021/09/16 08:31:46;;;;;;;12.45;8.70;;;;;;;14.18;87.56;98507.28;4170916;28;20049;-74
2021/09/16 08:33:48;;;;;;;15.15;8.40;;;;;;;14.22;87.43;98513.63;4169494;28;20053;-74
2021/09/16 08:35:49;;;;;;;13.25;8.63;;;;;;;14.23;87.58;98499.34;4170562;28;20515;-74
2021/09/16 08:37:50;;;;;;;12.13;8.10;;;;;;;14.27;87.26;98504.88;4171631;28;20068;-74
2021/09/16 08:39:50;;;;;;;13.60;7.85;;;;;;;14.30;86.62;98512.41;4167897;28;20460;-74
2021/09/16 08:41:51;;;;;;;12.02;8.40;;;;;;;14.30;87.07;98512.41;4170900;28;20087;-74
2021/09/16 08:43:52;;;;;;;10.95;8.43;;;;;;;14.29;86.54;98506.06;4162878;28;20037;-74
2021/09/16 08:45:52;;;;;;;11.57;7.63;;;;;;;14.30;85.82;98510.44;4161246;28;20049;-74
2021/09/16 08:47:53;;;;;;;12.15;8.30;;;;;;;14.22;86.24;98510.84;4169523;28;20477;-74
2021/09/16 08:49:54;;;;;;;14.18;8.40;;;;;;;14.23;86.18;98520.78;4170697;28;20041;-74
2021/09/16 08:51:55;;;;;;;11.80;7.25;;;;;;;14.24;86.15;98512.06;4171000;28;20535;-74
2021/09/16 08:53:55;;;;;;;12.57;7.13;;;;;;;14.24;85.54;98514.06;4167418;28;20045;-74
2021/09/16 08:55:56;;;;;;;11.18;6.35;;;;;;;14.15;85.02;98522.81;4169147;28;20049;-74
2021/09/16 08:57:59;;;;;;;10.93;6.07;;;;;;;14.22;85.62;98513.63;4170452;28;20076;-74
2021/09/16 08:59:59;;;;;;;11.98;7.25;;;;;;;14.16;85.23;98513.28;4170515;28;20156;-74
2021/09/16 09:01:59;;;;;;;8.65;6.00;;;;;;;14.24;84.51;98516.84;4152781;28;20477;-74
2021/09/16 09:04:00;;;;;;;11.75;6.53;;;;;;;14.08;83.40;98524.81;4168882;28;20457;-74
2021/09/16 09:06:00;;;;;;;9.82;6.72;;;;;;;14.11;83.71;98524.00;4171034;28;20495;-74
2021/09/16 09:08:01;;;;;;;10.35;6.55;;;;;;;14.06;82.62;98536.31;4168936;28;20068;-74
2021/09/16 09:10:02;;;;;;;8.23;6.15;;;;;;;14.05;82.29;98538.31;4168093;28;20956;-74
2021/09/16 09:12:09;;;;;;;11.18;6.28;;;;;;;14.00;82.72;98532.38;4169079;28;20029;-74
2021/09/16 09:14:09;;;;;;;12.02;7.07;;;;;;;13.99;82.23;98528.81;4166943;28;20468;-74
2021/09/16 09:16:11;;;;;;;10.82;6.10;;;;;;;14.10;82.53;98525.19;4151591;28;20037;-74